createdAt,value
2018-03-31T00:01:07.354Z,28.20
2018-03-31T00:03:34.507Z,27.58
2018-03-31T00:06:01.607Z,28.75
2018-03-31T00:08:29.510Z,27.30
2018-03-31T00:13:23.495Z,28.10
2018-03-31T00:18:18.228Z,27.67
2018-03-31T00:20:45.326Z,29.10
2018-03-31T00:23:12.419Z,28.65
2018-03-31T00:25:40.279Z,28.65
2018-03-31T00:30:34.254Z,29.77
2018-03-31T00:33:01.355Z,30.40
2018-03-31T00:35:28.871Z,30.42
2018-03-31T00:37:55.974Z,29.08
2018-03-31T00:40:23.311Z,30.42
2018-03-31T00:42:51.172Z,30.15
2018-03-31T00:45:18.287Z,28.27
2018-03-31T00:47:45.395Z,26.62
2018-03-31T00:50:13.277Z,29.77
2018-03-31T00:52:41.140Z,29.23
2018-03-31T00:55:09.011Z,30.33
2018-03-31T00:57:36.135Z,29.92
2018-03-31T01:00:03.503Z,29.27
2018-03-31T01:02:30.852Z,30.40
2018-03-31T01:04:57.976Z,31.00
2018-03-31T01:07:25.074Z,28.40
2018-03-31T01:09:52.179Z,29.90
2018-03-31T01:12:19.284Z,27.90
2018-03-31T01:14:46.391Z,28.85
2018-03-31T01:17:13.505Z,28.80
2018-03-31T01:19:40.611Z,27.52
2018-03-31T01:22:07.946Z,29.70
2018-03-31T01:24:35.051Z,32.30
2018-03-31T01:27:02.550Z,30.62
2018-03-31T01:29:29.645Z,28.85
2018-03-31T01:31:56.765Z,30.48
2018-03-31T01:34:23.867Z,31.35
2018-03-31T01:36:50.986Z,28.83
2018-03-31T01:39:18.098Z,30.62
2018-03-31T01:41:45.967Z,29.10
2018-03-31T01:44:13.070Z,28.35
2018-03-31T01:46:40.185Z,28.55
2018-03-31T01:49:08.282Z,28.87
2018-03-31T01:51:35.403Z,28.75
2018-03-31T01:54:02.511Z,29.60
2018-03-31T01:56:29.663Z,27.95
2018-03-31T01:58:56.786Z,27.25
2018-03-31T02:01:23.892Z,26.52
2018-03-31T02:03:51.001Z,26.98
2018-03-31T02:06:18.103Z,29.80
2018-03-31T02:08:45.195Z,28.92
2018-03-31T02:11:13.059Z,28.08
2018-03-31T02:13:41.165Z,28.15
2018-03-31T02:16:08.269Z,28.90
2018-03-31T02:18:35.374Z,31.20
2018-03-31T02:21:02.485Z,30.20
2018-03-31T02:23:29.587Z,30.88
2018-03-31T02:25:56.720Z,30.90
2018-03-31T02:28:23.824Z,31.48
2018-03-31T02:30:51.280Z,33.42
2018-03-31T02:35:46.472Z,33.60
2018-03-31T02:38:13.802Z,34.08
2018-03-31T02:40:40.927Z,32.63
2018-03-31T02:43:08.083Z,32.72
2018-03-31T02:45:35.183Z,35.00
2018-03-31T02:48:03.052Z,34.45
2018-03-31T02:50:30.928Z,34.28
2018-03-31T02:52:58.039Z,33.13
2018-03-31T02:55:25.160Z,34.83
2018-03-31T02:57:52.262Z,35.15
2018-03-31T03:00:19.427Z,33.78
2018-03-31T03:02:47.303Z,34.67
2018-03-31T03:05:15.167Z,34.65
2018-03-31T03:07:43.031Z,33.97
2018-03-31T03:10:10.126Z,34.72
2018-03-31T03:12:37.222Z,36.60
2018-03-31T03:15:04.334Z,35.97
2018-03-31T03:17:31.659Z,34.15
2018-03-31T03:19:59.023Z,33.17
2018-03-31T03:22:26.939Z,33.60
2018-03-31T03:24:54.104Z,34.35
2018-03-31T03:27:21.779Z,34.20
2018-03-31T03:29:48.890Z,34.65
2018-03-31T03:32:16.220Z,35.22
2018-03-31T03:34:43.327Z,34.88
2018-03-31T03:37:10.444Z,32.92
2018-03-31T03:39:38.539Z,32.88
2018-03-31T03:42:05.939Z,32.45
2018-03-31T03:44:33.275Z,31.75
2018-03-31T03:47:00.375Z,34.53
2018-03-31T03:49:27.490Z,33.92
2018-03-31T03:51:54.820Z,34.90
2018-03-31T03:54:21.922Z,35.17
2018-03-31T03:56:49.027Z,36.70
2018-03-31T03:59:16.135Z,36.70
2018-03-31T04:01:43.282Z,34.63
2018-03-31T04:04:10.367Z,36.00
2018-03-31T04:06:37.475Z,38.88
2018-03-31T04:09:04.578Z,36.70
2018-03-31T04:11:32.463Z,36.33
2018-03-31T04:13:59.591Z,36.10
2018-03-31T04:16:26.752Z,35.85
2018-03-31T04:18:54.179Z,35.25
2018-03-31T04:21:21.590Z,37.20
2018-03-31T04:23:48.703Z,35.30
2018-03-31T04:26:15.811Z,36.78
2018-03-31T04:28:42.908Z,39.42
2018-03-31T04:31:10.017Z,38.50
2018-03-31T04:33:37.119Z,37.55
2018-03-31T04:36:04.214Z,39.60
2018-03-31T04:38:32.082Z,41.13
2018-03-31T04:40:59.989Z,39.67
2018-03-31T04:43:27.093Z,41.15
2018-03-31T04:45:54.966Z,37.72
2018-03-31T04:48:22.852Z,37.72
2018-03-31T04:50:50.202Z,36.50
2018-03-31T04:53:18.339Z,39.92
2018-03-31T04:55:45.439Z,38.05
2018-03-31T04:58:13.366Z,38.35
2018-03-31T05:00:40.450Z,39.63
2018-03-31T05:03:07.844Z,39.72
2018-03-31T05:05:35.210Z,39.55
2018-03-31T05:08:02.348Z,38.33
2018-03-31T05:10:29.507Z,35.40
2018-03-31T05:13:06.544Z,35.42
2018-03-31T05:15:33.643Z,36.08
2018-03-31T05:18:00.744Z,36.30
2018-03-31T05:20:27.860Z,36.75
2018-03-31T05:22:54.962Z,36.83
2018-03-31T05:25:22.068Z,37.63
2018-03-31T05:27:49.560Z,38.40
2018-03-31T05:30:16.682Z,41.20
2018-03-31T05:32:44.063Z,43.47
2018-03-31T05:35:11.172Z,46.33
2018-03-31T05:37:38.810Z,45.08
2018-03-31T05:40:06.149Z,45.30
2018-03-31T05:42:35.417Z,41.13
2018-03-31T05:45:12.447Z,44.47
2018-03-31T05:47:39.563Z,41.60
2018-03-31T05:50:06.920Z,40.40
2018-03-31T05:52:34.023Z,40.10
2018-03-31T05:55:01.131Z,38.80
2018-03-31T05:57:28.239Z,39.95
2018-03-31T05:59:55.343Z,43.05
2018-03-31T06:02:22.451Z,40.85
2018-03-31T06:05:00.260Z,40.70
2018-03-31T06:07:28.867Z,40.83
2018-03-31T06:09:55.980Z,43.38
2018-03-31T06:12:23.082Z,45.33
2018-03-31T06:14:51.459Z,44.80
2018-03-31T06:17:18.599Z,43.92
2018-03-31T06:19:45.733Z,41.05
2018-03-31T06:22:13.604Z,42.00
2018-03-31T06:24:41.482Z,39.72
2018-03-31T06:27:10.339Z,43.90
2018-03-31T06:29:37.979Z,41.47
2018-03-31T06:32:06.074Z,42.28
2018-03-31T06:34:33.170Z,41.65
2018-03-31T06:37:00.272Z,40.75
2018-03-31T06:39:28.139Z,42.33
2018-03-31T06:41:55.244Z,43.70
2018-03-31T06:44:23.406Z,44.08
2018-03-31T06:46:50.516Z,43.67
2018-03-31T06:49:17.617Z,43.92
2018-03-31T06:51:44.719Z,41.22
2018-03-31T06:54:11.827Z,44.33
2018-03-31T06:56:38.944Z,42.75
2018-03-31T06:59:06.055Z,41.30
2018-03-31T07:01:33.923Z,43.05
2018-03-31T07:04:01.023Z,41.17
2018-03-31T07:06:28.128Z,42.50
2018-03-31T07:08:55.991Z,42.40
2018-03-31T07:11:23.899Z,41.65
2018-03-31T07:13:50.999Z,42.05
2018-03-31T07:16:18.098Z,41.22
2018-03-31T07:18:45.194Z,41.20
2018-03-31T07:21:13.821Z,42.55
2018-03-31T07:23:40.918Z,41.85
2018-03-31T07:26:08.006Z,41.00
2018-03-31T07:28:35.107Z,41.28
2018-03-31T07:31:02.203Z,44.00
2018-03-31T07:33:29.300Z,41.78
2018-03-31T07:35:57.163Z,40.75
2018-03-31T07:38:25.074Z,42.72
2018-03-31T07:40:52.176Z,42.58
2018-03-31T07:43:19.315Z,42.15
2018-03-31T07:45:46.429Z,43.38
2018-03-31T07:48:13.528Z,43.13
2018-03-31T07:50:40.665Z,41.80
2018-03-31T07:53:07.755Z,40.08
2018-03-31T07:55:34.859Z,39.10
2018-03-31T07:58:02.006Z,42.20
2018-03-31T08:00:29.112Z,38.95
2018-03-31T08:02:56.232Z,40.12
2018-03-31T08:05:23.332Z,41.17
2018-03-31T08:07:51.206Z,42.30
2018-03-31T08:10:18.309Z,44.13
2018-03-31T08:12:45.414Z,40.70
2018-03-31T08:15:13.288Z,41.13
2018-03-31T08:17:40.386Z,41.88
2018-03-31T08:20:07.493Z,42.78
2018-03-31T08:22:34.603Z,39.50
2018-03-31T08:25:01.713Z,38.72
2018-03-31T08:27:28.815Z,40.42
2018-03-31T08:29:55.946Z,41.90
2018-03-31T08:32:23.039Z,44.20
2018-03-31T08:34:50.140Z,43.17
2018-03-31T08:37:17.242Z,41.20
2018-03-31T08:39:44.356Z,43.15
2018-03-31T08:42:11.468Z,42.97
2018-03-31T08:44:38.603Z,42.33
2018-03-31T08:47:05.709Z,40.25
2018-03-31T08:49:32.867Z,42.10
2018-03-31T08:51:59.958Z,39.50
2018-03-31T08:54:27.111Z,41.63
2018-03-31T08:56:54.228Z,41.37
2018-03-31T08:59:21.324Z,40.28
2018-03-31T09:01:48.433Z,40.60
2018-03-31T09:04:15.531Z,41.67
2018-03-31T09:06:42.640Z,40.83
2018-03-31T09:09:09.809Z,42.30
2018-03-31T09:11:36.917Z,42.47
2018-03-31T09:14:04.011Z,43.03
2018-03-31T09:16:31.115Z,42.60
2018-03-31T09:18:58.220Z,42.10
2018-03-31T09:21:25.370Z,43.03
2018-03-31T09:23:52.454Z,43.35
2018-03-31T09:26:19.558Z,42.80
2018-03-31T09:28:46.687Z,42.50
2018-03-31T09:31:14.551Z,39.30
2018-03-31T09:33:41.651Z,38.97
2018-03-31T09:36:09.219Z,40.33
2018-03-31T09:38:36.364Z,41.00
2018-03-31T09:41:03.459Z,44.13
2018-03-31T09:43:30.565Z,42.03
2018-03-31T09:45:57.666Z,42.65
2018-03-31T09:48:24.780Z,44.28
2018-03-31T09:50:51.891Z,40.00
2018-03-31T09:53:18.991Z,41.13
2018-03-31T09:55:46.107Z,40.33
2018-03-31T09:58:13.977Z,40.58
2018-03-31T10:00:41.898Z,39.28
2018-03-31T10:03:08.995Z,39.00
2018-03-31T10:05:36.104Z,38.90
2018-03-31T10:08:03.196Z,40.40
2018-03-31T10:10:30.344Z,40.72
2018-03-31T10:12:58.370Z,40.63
2018-03-31T10:15:25.488Z,43.20
2018-03-31T10:17:52.786Z,43.38
2018-03-31T10:20:20.691Z,43.15
2018-03-31T10:22:47.787Z,43.53
2018-03-31T10:25:16.554Z,43.67
2018-03-31T10:27:43.732Z,45.78
2018-03-31T10:30:11.602Z,45.30
2018-03-31T10:32:39.531Z,44.35
2018-03-31T10:35:06.632Z,45.45
2018-03-31T10:37:34.526Z,45.65
2018-03-31T10:40:01.620Z,48.17
2018-03-31T10:42:28.723Z,49.05
2018-03-31T10:44:55.827Z,51.25
2018-03-31T10:47:23.018Z,57.95
2018-03-31T10:49:50.079Z,48.10
2018-03-31T10:52:17.947Z,48.58
2018-03-31T10:54:45.813Z,48.67
2018-03-31T10:57:13.682Z,48.03
2018-03-31T10:59:41.550Z,50.38
2018-03-31T11:02:09.409Z,46.92
2018-03-31T11:04:36.511Z,47.83
2018-03-31T11:07:03.623Z,51.20
2018-03-31T11:09:31.499Z,50.63
2018-03-31T11:11:59.366Z,45.42
2018-03-31T11:14:27.234Z,45.45
2018-03-31T11:16:54.363Z,48.53
2018-03-31T11:21:48.372Z,46.15
2018-03-31T11:24:15.487Z,43.33
2018-03-31T11:26:42.598Z,45.17
2018-03-31T11:29:10.491Z,46.37
2018-03-31T11:31:38.364Z,46.72
2018-03-31T11:34:06.245Z,45.05
2018-03-31T11:36:33.347Z,45.55
2018-03-31T11:39:00.451Z,46.13
2018-03-31T11:41:27.916Z,46.50
2018-03-31T11:43:55.018Z,45.17
2018-03-31T11:46:22.175Z,47.50
2018-03-31T11:51:16.234Z,46.10
2018-03-31T11:53:43.351Z,47.53
2018-03-31T11:56:10.461Z,48.03
2018-03-31T11:58:37.609Z,49.30
2018-03-31T12:32:56.647Z,47.90
2018-03-31T12:35:23.743Z,45.85
2018-03-31T12:37:50.845Z,48.00
2018-03-31T12:40:18.022Z,47.60
2018-03-31T13:07:16.459Z,47.20
2018-03-31T13:12:10.475Z,49.20
2018-03-31T13:14:38.363Z,76.12
2018-03-31T13:17:05.481Z,64.78
2018-03-31T13:19:32.589Z,54.13
2018-03-31T13:21:59.716Z,50.92
2018-03-31T13:24:27.592Z,75.55
2018-03-31T13:26:54.707Z,61.33
2018-03-31T13:29:21.828Z,49.72
2018-03-31T13:31:48.936Z,53.83
2018-03-31T13:34:16.808Z,52.62
2018-03-31T13:36:44.708Z,50.70
2018-03-31T13:39:11.824Z,52.47
2018-03-31T13:41:38.924Z,51.88
2018-03-31T13:44:06.040Z,53.53
2018-03-31T13:46:33.174Z,52.75
2018-03-31T13:49:00.315Z,54.65
2018-03-31T13:51:28.184Z,53.90
2018-03-31T13:53:56.109Z,54.60
2018-03-31T13:56:23.979Z,53.28
2018-03-31T13:58:51.864Z,53.87
2018-03-31T14:01:18.964Z,51.53
2018-03-31T14:03:46.066Z,51.10
2018-03-31T14:06:13.168Z,53.85
2018-03-31T14:08:40.272Z,55.03
2018-03-31T14:11:07.398Z,51.17
2018-03-31T14:13:34.559Z,50.35
2018-03-31T14:16:01.687Z,49.90
2018-03-31T14:18:28.795Z,47.95
2018-03-31T14:20:55.903Z,47.50
2018-03-31T14:23:23.007Z,49.40
2018-03-31T14:25:50.193Z,51.45
2018-03-31T14:28:17.300Z,52.65
2018-03-31T14:30:45.167Z,49.95
2018-03-31T14:33:13.031Z,47.80
2018-03-31T14:35:41.040Z,48.38
2018-03-31T14:38:08.164Z,55.45
2018-03-31T14:40:36.032Z,50.97
2018-03-31T14:43:03.902Z,50.15
2018-03-31T14:45:30.998Z,49.90
2018-03-31T14:47:58.101Z,50.55
2018-03-31T14:50:25.210Z,52.42
2018-03-31T14:52:52.352Z,49.38
2018-03-31T14:55:19.463Z,50.25
2018-03-31T14:57:46.564Z,49.75
2018-03-31T15:00:13.699Z,46.75
2018-03-31T15:02:40.818Z,44.42
2018-03-31T15:05:07.924Z,43.17
2018-03-31T15:07:35.024Z,45.15
2018-03-31T15:10:02.124Z,40.45
2018-03-31T15:12:29.228Z,39.40
2018-03-31T15:14:56.337Z,41.92
2018-03-31T15:17:23.491Z,41.20
2018-03-31T15:19:50.619Z,43.03
2018-03-31T15:22:18.488Z,41.78
2018-03-31T15:24:46.350Z,36.83
2018-03-31T15:27:14.214Z,34.53
2018-03-31T15:29:41.327Z,35.05
2018-03-31T15:32:08.428Z,35.97
2018-03-31T15:34:36.290Z,33.40
2018-03-31T15:37:03.431Z,36.63
2018-03-31T15:39:30.532Z,36.33
2018-03-31T15:41:57.635Z,41.70
2018-03-31T15:44:24.745Z,37.33
2018-03-31T15:46:51.846Z,38.53
2018-03-31T15:49:18.951Z,38.50
2018-03-31T15:51:46.056Z,39.38
2018-03-31T15:54:13.164Z,37.92
2018-03-31T15:56:40.273Z,32.03
2018-03-31T15:59:07.376Z,32.35
2018-03-31T16:01:35.795Z,31.80
2018-03-31T16:04:02.909Z,32.40
2018-03-31T16:06:30.027Z,32.47
2018-03-31T16:08:57.964Z,31.92
2018-03-31T16:11:25.043Z,34.80
2018-03-31T16:13:52.224Z,33.60
2018-03-31T16:16:20.118Z,33.97
2018-03-31T16:18:47.224Z,37.67
2018-03-31T16:21:14.328Z,37.17
2018-03-31T16:23:41.461Z,41.15
2018-03-31T16:26:08.639Z,39.88
2018-03-31T16:28:36.495Z,39.97
2018-03-31T16:31:03.620Z,40.63
2018-03-31T16:33:30.720Z,38.55
2018-03-31T16:35:57.826Z,38.20
2018-03-31T16:38:24.941Z,37.15
2018-03-31T16:40:52.035Z,36.30
2018-03-31T16:43:19.170Z,34.00
2018-03-31T16:45:46.266Z,34.83
2018-03-31T16:48:13.370Z,35.72
2018-03-31T16:50:40.477Z,37.72
2018-03-31T16:53:07.598Z,37.45
2018-03-31T16:55:34.694Z,34.47
2018-03-31T16:58:01.795Z,35.92
2018-03-31T17:00:28.903Z,31.12
2018-03-31T17:02:56.768Z,29.42
2018-03-31T17:05:23.859Z,27.95
2018-03-31T17:07:50.960Z,25.48
2018-03-31T17:10:18.058Z,24.15
2018-03-31T17:12:45.159Z,25.95
2018-03-31T17:15:13.096Z,29.17
2018-03-31T17:17:40.194Z,31.00
2018-03-31T17:20:08.059Z,36.83
2018-03-31T17:22:35.922Z,38.28
2018-03-31T17:25:03.025Z,40.63
2018-03-31T17:27:30.128Z,37.65
2018-03-31T17:29:57.230Z,36.53
2018-03-31T17:32:24.375Z,36.60
2018-03-31T17:34:51.487Z,37.70
2018-03-31T17:37:18.587Z,37.65
2018-03-31T17:39:46.454Z,38.88
2018-03-31T17:42:13.575Z,38.53
2018-03-31T17:44:41.439Z,43.08
2018-03-31T17:47:08.530Z,39.88
2018-03-31T17:49:35.636Z,42.53
2018-03-31T17:52:02.742Z,44.05
2018-03-31T17:54:29.842Z,47.35
2018-03-31T17:56:56.943Z,47.80
2018-03-31T17:59:24.046Z,47.72
2018-03-31T18:01:51.156Z,49.47
2018-03-31T18:04:18.265Z,48.08
2018-03-31T18:06:45.431Z,46.15
2018-03-31T18:09:13.302Z,48.70
2018-03-31T18:11:41.172Z,50.12
2018-03-31T18:14:08.275Z,50.55
2018-03-31T18:16:35.376Z,50.88
2018-03-31T18:19:02.478Z,47.65
2018-03-31T18:21:29.584Z,49.45
2018-03-31T18:23:56.695Z,50.97
2018-03-31T18:26:23.799Z,51.65
2018-03-31T18:28:50.903Z,47.25
2018-03-31T18:31:17.999Z,51.00
2018-03-31T18:33:45.907Z,51.95
2018-03-31T18:36:13.017Z,53.50
2018-03-31T18:38:40.128Z,56.33
2018-03-31T18:41:07.261Z,53.08
2018-03-31T18:43:34.391Z,54.08
2018-03-31T18:46:02.255Z,53.97
2018-03-31T18:48:29.355Z,53.47
2018-03-31T18:50:56.459Z,58.75
2018-03-31T18:53:23.563Z,57.22
2018-03-31T18:55:50.722Z,56.58
2018-03-31T18:58:17.834Z,53.87
2018-03-31T19:00:44.944Z,52.83
2018-03-31T19:03:12.070Z,55.47
2018-03-31T19:05:39.190Z,45.75
2018-03-31T19:08:06.314Z,46.55
2018-03-31T19:10:33.702Z,45.42
2018-03-31T19:13:00.806Z,47.20
2018-03-31T19:15:27.908Z,47.70
2018-03-31T19:17:55.020Z,47.15
2018-03-31T19:20:22.164Z,45.67
2018-03-31T19:22:49.275Z,50.85
2018-03-31T19:25:21.887Z,56.00
2018-03-31T19:27:49.004Z,49.92
2018-03-31T19:30:16.108Z,46.50
2018-03-31T19:32:43.223Z,46.88
2018-03-31T19:35:11.096Z,41.90
2018-03-31T19:37:39.031Z,40.22
2018-03-31T19:40:06.142Z,42.10
2018-03-31T19:42:33.255Z,40.08
2018-03-31T19:45:00.382Z,40.08
2018-03-31T19:47:27.503Z,41.88
2018-03-31T19:49:54.610Z,45.35
2018-03-31T19:52:21.715Z,46.63
2018-03-31T19:54:48.883Z,47.30
2018-03-31T19:57:16.719Z,45.42
2018-03-31T19:59:44.607Z,48.13
2018-03-31T20:02:11.702Z,47.03
2018-03-31T20:04:38.804Z,47.55
2018-03-31T20:07:05.923Z,45.17
2018-03-31T20:09:33.046Z,43.72
2018-03-31T20:12:00.147Z,42.53
2018-03-31T20:14:28.073Z,41.03
2018-03-31T20:16:55.946Z,41.35
2018-03-31T20:19:23.048Z,41.00
2018-03-31T20:21:50.946Z,41.08
2018-03-31T20:24:18.098Z,40.38
2018-03-31T20:26:45.504Z,41.15
2018-03-31T20:29:12.611Z,38.70
2018-03-31T20:31:39.739Z,37.72
2018-03-31T20:34:07.610Z,37.63
2018-03-31T20:36:34.723Z,35.80
2018-03-31T20:39:02.054Z,39.03
2018-03-31T20:41:29.155Z,37.58
2018-03-31T20:43:56.254Z,40.33
2018-03-31T20:46:23.366Z,39.17
2018-03-31T20:48:50.467Z,40.03
2018-03-31T20:51:17.611Z,39.95
2018-03-31T20:53:44.718Z,36.90
2018-03-31T20:56:11.816Z,37.38
2018-03-31T20:58:38.927Z,33.60
2018-03-31T21:01:06.028Z,33.20
2018-03-31T21:03:33.899Z,34.75
2018-03-31T21:06:01.767Z,32.47
2018-03-31T21:08:28.868Z,32.20
2018-03-31T21:10:56.753Z,33.72
2018-03-31T21:13:23.899Z,33.88
2018-03-31T21:15:51.007Z,33.50
2018-03-31T21:18:18.109Z,34.28
2018-03-31T21:20:45.268Z,31.55
2018-03-31T21:23:12.373Z,29.87
2018-03-31T21:25:39.471Z,31.10
2018-03-31T21:28:06.574Z,26.58
2018-03-31T21:30:33.687Z,27.48
2018-03-31T21:33:00.783Z,26.20
2018-03-31T21:35:27.887Z,26.02
2018-03-31T21:37:54.989Z,27.50
2018-03-31T21:40:22.088Z,26.20
2018-03-31T21:42:49.231Z,26.25
2018-03-31T21:45:16.345Z,28.10
2018-03-31T21:47:44.200Z,27.60
2018-03-31T21:50:11.300Z,27.77
2018-03-31T21:52:38.419Z,30.52
2018-03-31T21:55:05.519Z,33.00
2018-03-31T21:57:32.637Z,31.98
2018-03-31T21:59:59.739Z,30.08
2018-03-31T22:02:26.846Z,30.73
2018-03-31T22:04:53.946Z,30.27
2018-03-31T22:07:21.044Z,31.17
2018-03-31T22:14:48.350Z,28.23
2018-03-31T22:17:15.451Z,32.65
2018-03-31T22:19:42.552Z,28.55
2018-03-31T22:22:09.643Z,29.15
2018-03-31T22:24:36.742Z,29.40
2018-03-31T22:27:03.862Z,32.03
2018-03-31T22:29:30.954Z,30.65
2018-03-31T22:31:58.055Z,31.37
2018-03-31T22:34:25.159Z,30.35
2018-03-31T22:36:53.046Z,30.83
2018-03-31T22:39:20.908Z,32.38
2018-03-31T22:41:48.011Z,31.02
2018-03-31T22:44:15.099Z,31.85
2018-03-31T22:46:42.210Z,31.80
2018-03-31T22:49:09.307Z,26.45
2018-03-31T22:51:36.428Z,26.48
2018-03-31T22:54:03.532Z,25.95
2018-03-31T22:56:31.386Z,27.37
2018-03-31T22:58:58.485Z,26.12
2018-03-31T23:01:25.578Z,26.80
2018-03-31T23:03:52.690Z,25.30
2018-03-31T23:06:19.781Z,24.80
2018-03-31T23:08:46.883Z,23.80
2018-03-31T23:11:13.985Z,26.45
2018-03-31T23:13:41.088Z,26.55
2018-03-31T23:16:08.951Z,25.48
2018-03-31T23:18:36.823Z,27.77
2018-03-31T23:21:04.683Z,27.73
2018-03-31T23:23:32.615Z,27.65
2018-03-31T23:25:59.716Z,25.77
2018-03-31T23:28:26.816Z,27.80
2018-03-31T23:30:53.915Z,26.90
2018-03-31T23:33:21.780Z,27.73
2018-03-31T23:35:48.895Z,27.08
2018-03-31T23:38:15.986Z,27.48
2018-03-31T23:40:43.089Z,27.83
2018-03-31T23:43:10.182Z,25.33
2018-03-31T23:45:37.281Z,26.25
2018-03-31T23:48:04.392Z,25.73
2018-03-31T23:50:32.284Z,26.30
2018-03-31T23:52:59.388Z,25.17
2018-03-31T23:55:26.493Z,25.62
2018-03-31T23:57:54.359Z,24.42
